createdAt,value
2019-04-16T00:02:43.223Z,99.90
2019-04-16T00:05:27.724Z,99.90
2019-04-16T00:08:19.542Z,99.90
2019-04-16T00:10:51.315Z,99.90
2019-04-16T00:13:30.983Z,99.90
2019-04-16T00:16:03.404Z,99.90
2019-04-16T00:18:34.148Z,99.90
2019-04-16T00:21:26.729Z,99.90
2019-04-16T00:24:19.850Z,99.90
2019-04-16T00:26:58.099Z,99.90
2019-04-16T00:29:25.394Z,99.90
2019-04-16T00:32:02.151Z,99.90
2019-04-16T00:34:34.185Z,99.90
2019-04-16T00:37:04.741Z,99.90
2019-04-16T00:39:35.198Z,99.90
2019-04-16T00:42:26.391Z,99.90
2019-04-16T00:44:55.629Z,99.90
2019-04-16T00:47:26.135Z,99.90
2019-04-16T00:49:58.745Z,99.90
2019-04-16T00:52:28.817Z,99.90
2019-04-16T00:54:59.399Z,99.90
2019-04-16T00:57:33.209Z,99.90
2019-04-16T01:00:04.520Z,99.90
2019-04-16T01:02:35.096Z,99.90
2019-04-16T01:05:06.081Z,99.90
2019-04-16T01:07:36.674Z,99.90
2019-04-16T01:10:07.318Z,99.90
2019-04-16T01:12:54.639Z,99.90
2019-04-16T01:15:23.860Z,99.90
2019-04-16T01:17:54.402Z,99.90
2019-04-16T01:20:24.848Z,99.90
2019-04-16T01:22:55.331Z,99.90
2019-04-16T01:25:25.806Z,99.90
2019-04-16T01:28:09.364Z,99.90
2019-04-16T01:31:00.030Z,99.90
2019-04-16T01:33:43.410Z,99.90
2019-04-16T01:37:06.432Z,99.90
2019-04-16T01:39:36.430Z,99.90
2019-04-16T01:42:08.503Z,99.90
2019-04-16T01:44:38.919Z,99.90
2019-04-16T01:47:09.379Z,99.90
2019-04-16T01:49:42.079Z,99.90
2019-04-16T01:52:11.897Z,99.90
2019-04-16T01:54:42.425Z,99.90
2019-04-16T01:57:12.973Z,99.90
2019-04-16T01:59:43.518Z,99.90
2019-04-16T02:02:15.755Z,99.90
2019-04-16T02:04:48.431Z,99.90
2019-04-16T02:07:18.288Z,99.90
2019-04-16T02:09:48.768Z,99.90
2019-04-16T02:12:20.216Z,99.90
2019-04-16T02:14:51.195Z,99.90
2019-04-16T02:17:21.597Z,99.90
2019-04-16T02:19:52.015Z,99.90
2019-04-16T02:22:22.499Z,99.90
2019-04-16T02:24:52.938Z,99.90
2019-04-16T02:27:26.106Z,99.90
2019-04-16T02:29:55.623Z,99.90
2019-04-16T02:32:26.204Z,99.90
2019-04-16T02:34:56.664Z,99.90
2019-04-16T02:37:27.205Z,99.90
2019-04-16T02:39:59.198Z,99.90
2019-04-16T02:42:32.017Z,99.90
2019-04-16T02:45:02.204Z,99.90
2019-04-16T02:47:40.239Z,99.90
2019-04-16T02:50:08.360Z,99.90
2019-04-16T02:52:50.392Z,99.90
2019-04-16T02:55:33.157Z,99.90
2019-04-16T02:58:25.316Z,99.90
2019-04-16T03:01:09.819Z,99.90
2019-04-16T03:03:44.269Z,99.90
2019-04-16T03:06:14.654Z,99.90
2019-04-16T03:08:45.215Z,99.90
2019-04-16T03:11:17.088Z,99.90
2019-04-16T03:13:47.816Z,99.90
2019-04-16T03:16:29.434Z,99.90
2019-04-16T03:19:05.117Z,99.90
2019-04-16T03:21:35.455Z,99.90
2019-04-16T03:24:09.339Z,99.90
2019-04-16T03:26:37.980Z,99.90
2019-04-16T03:29:08.556Z,99.90
2019-04-16T03:31:39.033Z,99.90
2019-04-16T03:34:09.581Z,99.90
2019-04-16T03:36:40.059Z,99.90
2019-04-16T03:39:13.217Z,99.90
2019-04-16T03:41:42.818Z,99.90
2019-04-16T03:44:13.284Z,99.90
2019-04-16T03:46:46.748Z,99.90
2019-04-16T03:49:15.929Z,99.90
2019-04-16T03:51:46.481Z,99.90
2019-04-16T03:54:19.309Z,99.90
2019-04-16T03:56:49.026Z,99.90
2019-04-16T03:59:19.571Z,99.90
2019-04-16T04:01:49.988Z,99.90
2019-04-16T04:04:28.954Z,99.90
2019-04-16T04:06:57.220Z,99.90
2019-04-16T04:09:27.765Z,99.90
2019-04-16T04:11:58.453Z,99.90
2019-04-16T04:14:29.068Z,99.90
2019-04-16T04:16:59.525Z,99.90
2019-04-16T04:19:29.959Z,99.90
2019-04-16T04:22:00.459Z,99.90
2019-04-16T04:24:31.446Z,99.90
2019-04-16T04:27:02.571Z,99.90
2019-04-16T04:29:33.006Z,99.90
2019-04-16T04:32:04.241Z,99.90
2019-04-16T04:34:34.821Z,99.90
2019-04-16T04:37:05.360Z,99.90
2019-04-16T04:39:35.894Z,99.90
2019-04-16T04:42:06.526Z,99.90
2019-04-16T04:44:37.164Z,99.90
2019-04-16T04:47:07.944Z,99.90
2019-04-16T04:49:38.585Z,99.90
2019-04-16T04:52:13.564Z,99.90
2019-04-16T04:54:41.046Z,99.90
2019-04-16T04:57:11.544Z,99.90
2019-04-16T04:59:42.026Z,99.90
2019-04-16T05:02:14.667Z,99.90
2019-04-16T05:04:52.496Z,99.90
2019-04-16T05:07:25.731Z,99.90
2019-04-16T05:09:55.788Z,99.90
2019-04-16T05:12:30.174Z,99.90
2019-04-16T05:15:03.831Z,99.90
2019-04-16T05:17:35.500Z,99.90
2019-04-16T05:20:06.594Z,99.90
2019-04-16T05:22:37.154Z,99.90
2019-04-16T05:25:07.610Z,99.90
2019-04-16T05:27:41.029Z,99.90
2019-04-16T05:30:10.399Z,99.90
2019-04-16T05:32:40.970Z,99.90
2019-04-16T05:35:11.456Z,99.90
2019-04-16T05:37:41.899Z,99.90
2019-04-16T05:40:13.732Z,99.90
2019-04-16T05:42:44.394Z,99.90
2019-04-16T05:47:59.516Z,99.90
2019-04-16T05:50:30.058Z,99.90
2019-04-16T05:53:01.538Z,99.90
2019-04-16T05:55:37.544Z,99.90
2019-04-16T05:58:08.097Z,99.90
2019-04-16T06:01:03.742Z,99.90
2019-04-16T06:03:34.352Z,99.90
2019-04-16T06:06:04.985Z,99.90
2019-04-16T06:08:38.180Z,99.90
2019-04-16T06:11:07.985Z,99.90
2019-04-16T06:13:45.246Z,99.90
2019-04-16T06:16:33.321Z,99.90
2019-04-16T06:19:47.519Z,99.90
2019-04-16T06:22:22.085Z,99.90
2019-04-16T06:25:14.699Z,99.90
2019-04-16T06:28:07.018Z,99.90
2019-04-16T06:30:51.538Z,99.90
2019-04-16T06:33:32.255Z,99.90
2019-04-16T06:36:19.459Z,99.90
2019-04-16T06:38:57.633Z,99.90
2019-04-16T06:41:47.869Z,99.90
2019-04-16T06:44:21.042Z,99.90
2019-04-16T06:47:10.526Z,99.90
2019-04-16T06:50:00.200Z,99.90
2019-04-16T06:52:41.530Z,99.90
2019-04-16T06:55:24.322Z,99.90
2019-04-16T06:58:28.012Z,99.90
2019-04-16T07:01:28.708Z,99.90
2019-04-16T07:04:20.407Z,99.90
2019-04-16T07:07:09.494Z,99.90
2019-04-16T07:09:48.917Z,99.90
2019-04-16T07:12:23.851Z,99.90
2019-04-16T07:14:54.467Z,99.90
2019-04-16T07:20:19.534Z,99.90
2019-04-16T07:22:52.742Z,99.90
2019-04-16T07:25:26.378Z,99.90
2019-04-16T07:28:25.149Z,99.90
2019-04-16T07:31:06.219Z,99.90
2019-04-16T07:33:56.822Z,99.90
2019-04-16T07:36:36.479Z,99.90
2019-04-16T07:39:29.702Z,99.90
2019-04-16T07:42:21.248Z,99.90
2019-04-16T07:45:03.402Z,99.90
2019-04-16T07:48:11.196Z,99.90
2019-04-16T07:51:01.857Z,99.90
2019-04-16T07:53:57.561Z,99.90
2019-04-16T07:56:28.005Z,99.90
2019-04-16T07:59:01.325Z,99.90
2019-04-16T08:01:30.830Z,99.90
2019-04-16T08:12:32.175Z,94.60
2019-04-16T08:15:13.328Z,93.60
2019-04-16T08:17:35.606Z,91.00
2019-04-16T08:20:06.402Z,92.90
2019-04-16T08:22:39.909Z,96.70
2019-04-16T08:25:11.226Z,91.30
2019-04-16T08:27:47.142Z,90.10
2019-04-16T12:57:40.522Z,96.10
2019-04-16T13:00:31.716Z,96.30
2019-04-16T13:06:39.961Z,96.10
2019-04-16T13:09:50.004Z,95.10
2019-04-16T13:12:26.600Z,93.90
2019-04-16T13:15:17.143Z,97.20
2019-04-16T13:18:19.018Z,96.00
2019-04-16T13:21:15.914Z,97.60
2019-04-16T13:23:57.008Z,98.20
2019-04-16T13:29:32.573Z,99.90
2019-04-16T13:32:03.108Z,99.90
2019-04-16T13:34:33.523Z,99.90
2019-04-16T13:37:04.164Z,99.90
2019-04-16T13:39:53.874Z,99.90
2019-04-16T13:42:24.396Z,99.90
2019-04-16T13:45:25.559Z,98.80
2019-04-16T13:47:55.636Z,98.20
2019-04-16T13:54:17.340Z,98.60
2019-04-16T13:56:53.403Z,99.70
2019-04-16T14:00:04.706Z,99.60
2019-04-16T14:02:55.822Z,99.90
2019-04-16T14:05:26.493Z,99.90
2019-04-16T14:07:56.948Z,99.10
2019-04-16T14:10:27.509Z,99.70
2019-04-16T14:12:57.973Z,99.90
2019-04-16T14:15:35.598Z,99.90
2019-04-16T14:18:03.670Z,99.90
2019-04-16T14:20:34.165Z,99.90
2019-04-16T14:23:04.654Z,99.90
2019-04-16T14:25:35.064Z,99.90
2019-04-16T14:28:05.444Z,99.90
2019-04-16T14:30:42.698Z,99.90
2019-04-16T14:33:42.952Z,99.90
2019-04-16T14:36:13.683Z,99.90
2019-04-16T14:38:48.660Z,99.90
2019-04-16T14:41:19.280Z,99.90
2019-04-16T14:43:54.853Z,99.90
2019-04-16T14:46:28.244Z,99.90
2019-04-16T14:48:57.492Z,99.90
2019-04-16T14:51:28.022Z,99.90
2019-04-16T14:54:17.688Z,99.90
2019-04-16T14:56:51.293Z,99.90
2019-04-16T14:59:34.153Z,99.90
2019-04-16T15:11:24.098Z,99.90
2019-04-16T15:14:19.970Z,99.90
2019-04-16T15:17:12.945Z,99.90
2019-04-16T15:20:18.563Z,99.90
2019-04-16T15:23:09.979Z,99.90
2019-04-16T15:25:55.118Z,99.90
2019-04-16T15:28:35.703Z,99.90
2019-04-16T15:31:13.493Z,99.90
2019-04-16T15:33:48.443Z,99.90
2019-04-16T15:36:28.091Z,99.90
2019-04-16T15:39:10.574Z,99.90
2019-04-16T15:41:48.604Z,99.90
2019-04-16T15:44:31.952Z,99.90
2019-04-16T15:47:20.241Z,99.90
2019-04-16T15:50:06.767Z,99.90
2019-04-16T15:52:54.350Z,99.90
2019-04-16T15:55:44.230Z,99.90
2019-04-16T15:58:36.455Z,99.90
2019-04-16T16:01:37.735Z,99.90
2019-04-16T16:04:17.436Z,99.90
2019-04-16T16:07:08.189Z,99.90
2019-04-16T16:10:01.255Z,99.90
2019-04-16T16:12:36.537Z,99.90
2019-04-16T16:15:09.331Z,99.90
2019-04-16T16:17:40.801Z,99.90
2019-04-16T16:20:12.320Z,99.90
2019-04-16T16:25:42.775Z,99.90
2019-04-16T16:28:13.254Z,99.90
2019-04-16T16:30:43.804Z,99.90
2019-04-16T16:33:14.438Z,99.90
2019-04-16T16:35:57.704Z,99.90
2019-04-16T16:38:21.051Z,99.90
2019-04-16T16:40:54.307Z,99.90
2019-04-16T16:43:27.088Z,99.90
2019-04-16T16:46:10.000Z,99.90
2019-04-16T16:48:42.433Z,99.90
2019-04-16T16:51:15.598Z,99.90
2019-04-16T16:54:05.265Z,99.90
2019-04-16T17:00:20.760Z,99.90
2019-04-16T17:03:10.898Z,99.90
2019-04-16T17:05:47.449Z,99.90
2019-04-16T17:08:18.059Z,99.90
2019-04-16T17:10:48.652Z,99.90
2019-04-16T17:13:21.224Z,99.90
2019-04-16T17:15:51.307Z,99.90
2019-04-16T17:18:21.891Z,99.90
2019-04-16T17:20:53.655Z,99.90
2019-04-16T17:23:25.732Z,99.90
2019-04-16T17:25:58.520Z,99.90
2019-04-16T17:28:28.412Z,99.90
2019-04-16T17:30:59.024Z,99.90
2019-04-16T17:33:29.554Z,99.90
2019-04-16T17:36:00.661Z,99.90
2019-04-16T17:38:33.932Z,99.90
2019-04-16T17:41:07.254Z,99.90
2019-04-16T17:44:03.608Z,99.90
2019-04-16T17:46:51.338Z,99.90
2019-04-16T17:49:39.136Z,99.90
2019-04-16T17:52:13.514Z,99.90
2019-04-16T17:54:51.747Z,99.90
2019-04-16T17:57:31.712Z,99.90
2019-04-16T18:00:37.748Z,99.90
2019-04-16T18:03:42.814Z,99.90
2019-04-16T18:06:37.923Z,99.90
2019-04-16T18:09:27.625Z,99.90
2019-04-16T18:12:20.711Z,99.90
2019-04-16T18:14:59.072Z,99.90
2019-04-16T18:17:46.819Z,99.90
2019-04-16T18:20:31.683Z,99.90
2019-04-16T18:23:43.513Z,99.90
2019-04-16T18:30:06.940Z,99.90
2019-04-16T18:33:07.214Z,99.90
2019-04-16T18:35:45.364Z,99.90
2019-04-16T18:38:43.949Z,99.90
2019-04-16T18:41:27.730Z,99.90
2019-04-16T18:44:33.611Z,99.90
2019-04-16T18:47:23.508Z,99.90
2019-04-16T18:49:55.871Z,99.90
2019-04-16T18:52:26.485Z,99.90
2019-04-16T18:54:56.905Z,99.90
2019-04-16T18:57:27.394Z,99.90
2019-04-16T18:59:57.868Z,99.90
2019-04-16T19:02:29.653Z,99.90
2019-04-16T19:05:00.603Z,99.90
2019-04-16T19:07:35.821Z,99.90
2019-04-16T19:10:15.851Z,99.90
2019-04-16T19:12:46.366Z,99.90
2019-04-16T19:15:16.888Z,99.90
2019-04-16T19:17:47.430Z,99.90
2019-04-16T19:20:18.413Z,99.90
2019-04-16T19:22:49.971Z,99.90
2019-04-16T19:25:21.511Z,99.90
2019-04-16T19:27:52.497Z,99.90
2019-04-16T19:30:23.259Z,99.90
2019-04-16T19:32:53.950Z,99.90
2019-04-16T19:35:24.948Z,99.90
2019-04-16T19:37:55.694Z,99.90
2019-04-16T19:40:27.886Z,99.90
2019-04-16T19:43:02.541Z,99.90
2019-04-16T19:45:30.733Z,99.90
2019-04-16T19:48:02.126Z,99.90
2019-04-16T19:50:38.309Z,99.90
2019-04-16T19:53:13.777Z,99.90
2019-04-16T19:55:46.614Z,99.90
2019-04-16T19:58:17.233Z,99.90
2019-04-16T20:00:48.057Z,99.90
2019-04-16T20:03:30.538Z,99.90
2019-04-16T20:10:19.698Z,99.90
2019-04-16T20:12:09.565Z,99.90
2019-04-16T20:14:48.088Z,99.90
2019-04-16T20:17:25.078Z,99.90
2019-04-16T20:20:03.613Z,99.90
2019-04-16T20:22:52.134Z,99.90
2019-04-16T20:25:24.541Z,99.90
2019-04-16T20:27:58.838Z,99.90
2019-04-16T20:30:31.795Z,99.90
2019-04-16T20:33:04.066Z,99.90
2019-04-16T20:35:50.314Z,99.90
2019-04-16T20:38:18.219Z,99.90
2019-04-16T20:40:50.515Z,99.90
2019-04-16T20:43:41.724Z,99.90
2019-04-16T20:46:14.625Z,99.90
2019-04-16T20:49:16.568Z,99.90
2019-04-16T20:52:00.620Z,99.90
2019-04-16T20:54:44.274Z,99.90
2019-04-16T20:57:25.691Z,99.90
2019-04-16T20:59:55.864Z,99.90
2019-04-16T21:02:37.825Z,99.90
2019-04-16T21:05:21.577Z,99.90
2019-04-16T21:07:58.408Z,99.90
2019-04-16T21:10:35.641Z,99.90
2019-04-16T21:13:09.685Z,99.90
2019-04-16T21:15:48.558Z,99.90
2019-04-16T21:18:20.376Z,99.90
2019-04-16T21:20:55.369Z,99.90
2019-04-16T21:23:35.526Z,99.90
2019-04-16T21:26:06.210Z,99.90
2019-04-16T21:28:58.241Z,99.90
2019-04-16T21:31:42.372Z,99.90
2019-04-16T21:34:30.129Z,99.90
2019-04-16T21:37:40.732Z,99.90
2019-04-16T21:40:23.132Z,99.90
2019-04-16T21:42:59.251Z,99.90
2019-04-16T21:45:32.204Z,99.90
2019-04-16T21:48:12.334Z,99.90
2019-04-16T21:50:49.666Z,99.90
2019-04-16T21:53:42.441Z,99.90
2019-04-16T21:56:19.199Z,99.90
2019-04-16T21:59:04.722Z,99.90
2019-04-16T22:01:42.163Z,99.90
2019-04-16T22:04:27.482Z,99.90
2019-04-16T22:07:08.250Z,99.90
2019-04-16T22:09:46.851Z,99.90
2019-04-16T22:12:32.360Z,99.90
2019-04-16T22:19:24.650Z,99.90
2019-04-16T22:21:57.893Z,99.90
2019-04-16T22:24:55.037Z,99.90
2019-04-16T22:27:29.015Z,99.90
2019-04-16T22:30:10.624Z,99.90
2019-04-16T22:32:44.335Z,99.90
2019-04-16T22:38:35.481Z,99.90
2019-04-16T22:41:32.599Z,99.90
2019-04-16T22:44:23.404Z,99.90
2019-04-16T22:47:05.438Z,99.90
2019-04-16T22:49:35.990Z,99.90
2019-04-16T22:52:06.459Z,99.90
2019-04-16T22:54:38.853Z,99.90
2019-04-16T22:57:12.406Z,99.90
2019-04-16T22:59:43.988Z,99.90
2019-04-16T23:02:23.405Z,99.90
2019-04-16T23:04:57.876Z,99.90
2019-04-16T23:07:27.174Z,99.90
2019-04-16T23:09:57.795Z,99.90
2019-04-16T23:12:28.348Z,99.90
2019-04-16T23:14:58.992Z,99.90
2019-04-16T23:17:30.770Z,99.90
2019-04-16T23:20:01.221Z,99.90
2019-04-16T23:22:31.680Z,99.90
2019-04-16T23:25:02.149Z,99.90
2019-04-16T23:27:37.189Z,99.90
2019-04-16T23:30:06.631Z,99.90
2019-04-16T23:32:37.265Z,99.90
2019-04-16T23:35:10.797Z,99.90
2019-04-16T23:37:40.390Z,99.90
2019-04-16T23:40:12.104Z,99.90
2019-04-16T23:42:54.711Z,99.90
2019-04-16T23:45:48.540Z,99.90
2019-04-16T23:48:44.689Z,99.90
2019-04-16T23:51:20.889Z,99.90
2019-04-16T23:53:58.292Z,99.90
2019-04-16T23:56:52.941Z,99.90
2019-04-16T23:59:41.491Z,99.90
